createdAt,value
2023-04-05T00:01:53.565Z,11.56
2023-04-05T00:04:24.868Z,11.68
2023-04-05T00:06:55.314Z,11.98
2023-04-05T00:09:25.018Z,11.57
2023-04-05T00:11:54.407Z,11.88
2023-04-05T00:14:24.227Z,11.64
2023-04-05T00:16:53.615Z,12.11
2023-04-05T00:19:24.991Z,11.32
2023-04-05T00:21:54.750Z,11.94
2023-04-05T00:24:24.434Z,11.49
2023-04-05T00:26:53.603Z,11.36
2023-04-05T00:29:23.295Z,11.50
2023-04-05T00:31:52.562Z,11.75
2023-04-05T00:34:23.555Z,11.82
2023-04-05T00:36:52.966Z,12.03
2023-04-05T00:39:22.516Z,12.07
2023-04-05T00:41:51.750Z,12.01
2023-04-05T00:44:21.459Z,12.10
2023-04-05T00:46:51.153Z,12.04
2023-04-05T00:49:21.234Z,11.65
2023-04-05T00:51:52.246Z,11.76
2023-04-05T00:54:21.962Z,12.57
2023-04-05T00:56:53.205Z,12.28
2023-04-05T00:59:22.959Z,12.15
2023-04-05T01:01:57.636Z,12.09
2023-04-05T01:04:30.662Z,11.59
2023-04-05T01:07:09.076Z,11.33
2023-04-05T01:09:54.045Z,11.77
2023-04-05T01:12:26.382Z,11.54
2023-04-05T01:14:56.882Z,11.15
2023-04-05T01:17:28.582Z,11.52
2023-04-05T01:20:00.383Z,10.92
2023-04-05T01:22:59.570Z,10.37
2023-04-05T01:26:11.416Z,10.71
2023-04-05T01:29:03.651Z,11.02
2023-04-05T01:31:44.066Z,10.75
2023-04-05T01:34:26.121Z,10.79
2023-04-05T01:36:58.668Z,11.22
2023-04-05T01:39:30.594Z,10.79
2023-04-05T01:42:02.056Z,10.69
2023-04-05T01:44:31.453Z,10.88
2023-04-05T01:47:02.405Z,10.74
2023-04-05T01:49:31.782Z,10.66
2023-04-05T01:52:01.446Z,10.79
2023-04-05T01:54:30.927Z,10.92
2023-04-05T01:57:00.518Z,10.67
2023-04-05T01:59:30.032Z,11.06
2023-04-05T02:02:02.950Z,11.05
2023-04-05T02:04:32.419Z,10.66
2023-04-05T02:07:03.079Z,11.03
2023-04-05T02:09:32.658Z,10.83
2023-04-05T02:12:02.521Z,10.78
2023-04-05T02:14:32.012Z,10.84
2023-04-05T02:17:03.312Z,10.77
2023-04-05T02:19:37.343Z,10.42
2023-04-05T02:22:07.042Z,10.45
2023-04-05T02:24:36.832Z,10.14
2023-04-05T02:27:08.459Z,9.87
2023-04-05T02:29:37.650Z,10.08
2023-04-05T02:36:29.049Z,10.19
2023-04-05T02:38:58.370Z,9.82
2023-04-05T02:41:28.049Z,10.27
2023-04-05T02:43:57.288Z,10.08
2023-04-05T02:46:26.982Z,9.81
2023-04-05T02:48:56.443Z,9.88
2023-04-05T02:51:30.795Z,9.97
2023-04-05T02:54:00.320Z,10.33
2023-04-05T02:56:30.361Z,10.76
2023-04-05T02:59:01.814Z,10.36
2023-04-05T03:01:32.999Z,9.54
2023-04-05T03:04:02.911Z,9.50
2023-04-05T03:06:35.294Z,9.87
2023-04-05T03:09:07.400Z,9.82
2023-04-05T03:11:37.161Z,10.02
2023-04-05T03:14:06.674Z,10.31
2023-04-05T03:16:50.705Z,10.78
2023-04-05T03:19:36.803Z,10.21
2023-04-05T03:22:17.275Z,10.05
2023-04-05T03:24:46.851Z,9.94
2023-04-05T03:27:18.892Z,10.48
2023-04-05T03:30:00.873Z,10.52
2023-04-05T03:32:31.986Z,10.33
2023-04-05T03:35:09.921Z,10.58
2023-04-05T03:37:41.236Z,10.69
2023-04-05T03:40:13.361Z,10.03
2023-04-05T03:42:44.459Z,10.06
2023-04-05T03:45:16.463Z,10.29
2023-04-05T03:47:48.409Z,10.10
2023-04-05T03:50:17.697Z,10.06
2023-04-05T03:52:49.451Z,10.27
2023-04-05T03:55:19.075Z,9.53
2023-04-05T03:57:49.785Z,9.99
2023-04-05T04:00:25.200Z,10.56
2023-04-05T04:03:21.118Z,10.08
2023-04-05T04:05:53.640Z,10.24
2023-04-05T04:08:25.146Z,10.30
2023-04-05T04:10:54.470Z,9.91
2023-04-05T04:13:30.399Z,10.28
2023-04-05T04:16:22.401Z,10.35
2023-04-05T04:18:57.847Z,10.18
2023-04-05T04:21:36.024Z,9.23
2023-04-05T04:24:18.903Z,10.35
2023-04-05T04:27:10.736Z,10.22
2023-04-05T04:29:56.708Z,10.47
2023-04-05T04:32:53.695Z,10.28
2023-04-05T04:35:42.562Z,10.54
2023-04-05T04:38:21.754Z,10.59
2023-04-05T04:41:26.841Z,10.31
2023-04-05T04:44:32.444Z,10.68
2023-04-05T04:47:17.535Z,10.66
2023-04-05T04:50:11.681Z,10.99
2023-04-05T04:52:41.746Z,11.46
2023-04-05T04:55:13.825Z,11.31
2023-04-05T04:57:44.915Z,11.01
2023-04-05T05:00:16.159Z,10.82
2023-04-05T05:02:47.161Z,10.85
2023-04-05T05:05:18.529Z,11.23
2023-04-05T05:07:48.209Z,10.82
2023-04-05T05:10:17.657Z,11.28
2023-04-05T05:12:49.606Z,10.89
2023-04-05T05:15:19.008Z,11.02
2023-04-05T05:17:53.175Z,10.57
2023-04-05T05:20:23.242Z,10.57
2023-04-05T05:22:52.921Z,11.12
2023-04-05T05:25:22.387Z,11.39
2023-04-05T05:27:53.441Z,11.17
2023-04-05T05:30:26.128Z,11.04
2023-04-05T05:32:57.906Z,11.55
2023-04-05T05:35:27.825Z,11.29
2023-04-05T05:37:57.610Z,11.74
2023-04-05T05:40:27.332Z,11.78
2023-04-05T05:42:58.372Z,11.24
2023-04-05T05:45:27.672Z,11.89
2023-04-05T05:47:58.535Z,11.48
2023-04-05T05:50:28.287Z,12.05
2023-04-05T05:52:59.118Z,12.24
2023-04-05T05:55:29.776Z,11.90
2023-04-05T05:58:00.905Z,12.52
2023-04-05T06:00:30.113Z,11.70
2023-04-05T06:03:00.260Z,12.47
2023-04-05T06:05:29.612Z,12.68
2023-04-05T06:07:59.354Z,12.18
2023-04-05T06:10:28.781Z,12.19
2023-04-05T06:12:59.826Z,13.23
2023-04-05T06:15:29.295Z,12.98
2023-04-05T06:17:58.952Z,12.86
2023-04-05T06:20:28.361Z,12.37
2023-04-05T06:22:57.827Z,11.99
2023-04-05T06:25:27.237Z,12.16
2023-04-05T06:27:56.851Z,12.07
2023-04-05T06:30:27.609Z,12.16
2023-04-05T06:32:57.289Z,12.56
2023-04-05T06:35:27.318Z,12.90
2023-04-05T06:37:56.803Z,13.20
2023-04-05T06:40:26.095Z,13.20
2023-04-05T06:42:55.907Z,12.48
2023-04-05T06:45:31.834Z,12.40
2023-04-05T06:48:01.720Z,12.93
2023-04-05T06:50:31.104Z,12.50
2023-04-05T06:53:01.128Z,12.20
2023-04-05T06:55:30.676Z,13.12
2023-04-05T06:58:00.401Z,12.17
2023-04-05T07:00:31.440Z,13.06
2023-04-05T07:03:01.320Z,12.92
2023-04-05T07:05:31.167Z,13.17
2023-04-05T07:08:01.774Z,12.94
2023-04-05T07:10:31.023Z,12.83
2023-04-05T07:13:00.822Z,13.15
2023-04-05T07:15:31.541Z,13.66
2023-04-05T07:18:01.254Z,13.76
2023-04-05T07:20:30.658Z,13.66
2023-04-05T07:23:00.457Z,14.27
2023-04-05T07:25:29.736Z,14.72
2023-04-05T07:27:59.440Z,14.92
2023-04-05T07:30:33.103Z,15.05
2023-04-05T07:33:02.700Z,14.93
2023-04-05T07:35:32.109Z,15.49
2023-04-05T07:38:01.629Z,15.56
2023-04-05T07:40:30.983Z,14.97
2023-04-05T07:43:00.632Z,15.29
2023-04-05T07:45:31.519Z,14.92
2023-04-05T07:48:01.230Z,15.55
2023-04-05T07:50:30.544Z,15.30
2023-04-05T07:53:00.326Z,15.78
2023-04-05T07:55:29.607Z,15.15
2023-04-05T07:57:59.665Z,15.43
2023-04-05T08:00:30.644Z,14.70
2023-04-05T08:03:02.112Z,14.79
2023-04-05T08:05:32.186Z,14.81
2023-04-05T08:08:01.737Z,14.44
2023-04-05T08:10:31.132Z,15.11
2023-04-05T08:13:00.758Z,15.39
2023-04-05T08:15:31.496Z,15.53
2023-04-05T08:18:01.317Z,15.48
2023-04-05T08:20:30.671Z,15.41
2023-04-05T08:23:00.442Z,15.59
2023-04-05T08:25:29.784Z,15.41
2023-04-05T08:27:59.336Z,15.09
2023-04-05T08:30:30.191Z,15.78
2023-04-05T08:32:59.873Z,14.77
2023-04-05T08:35:29.325Z,14.36
2023-04-05T08:37:58.956Z,14.58
2023-04-05T08:40:37.117Z,14.67
2023-04-05T08:43:12.580Z,14.72
2023-04-05T08:45:51.395Z,15.56
2023-04-05T08:48:21.953Z,16.02
2023-04-05T08:50:54.408Z,16.19
2023-04-05T08:53:24.110Z,15.94
2023-04-05T08:55:56.584Z,15.99
2023-04-05T08:58:27.931Z,16.68
2023-04-05T09:00:59.941Z,16.05
2023-04-05T09:03:36.047Z,16.02
2023-04-05T09:06:08.773Z,15.54
2023-04-05T09:08:39.610Z,16.23
2023-04-05T09:11:09.126Z,16.03
2023-04-05T09:13:38.856Z,15.63
2023-04-05T09:16:11.177Z,14.81
2023-04-05T09:18:40.875Z,14.90
2023-04-05T09:21:11.214Z,15.02
2023-04-05T09:23:52.684Z,14.80
2023-04-05T09:26:23.085Z,14.31
2023-04-05T09:28:56.464Z,13.69
2023-04-05T09:31:34.860Z,14.34
2023-04-05T09:34:08.970Z,14.78
2023-04-05T09:36:44.742Z,14.36
2023-04-05T09:39:16.256Z,14.23
2023-04-05T09:42:05.118Z,14.59
2023-04-05T09:44:50.193Z,14.67
2023-04-05T09:47:22.326Z,14.89
2023-04-05T09:49:56.567Z,15.01
2023-04-05T09:52:26.942Z,14.82
2023-04-05T09:54:58.148Z,15.23
2023-04-05T09:57:29.621Z,15.29
2023-04-05T09:59:59.465Z,14.66
2023-04-05T10:02:38.312Z,14.81
2023-04-05T10:05:11.638Z,14.28
2023-04-05T10:07:41.433Z,15.22
2023-04-05T10:10:12.881Z,15.40
2023-04-05T10:12:43.074Z,15.71
2023-04-05T10:15:14.370Z,15.73
2023-04-05T10:17:51.577Z,16.32
2023-04-05T10:20:22.767Z,16.54
2023-04-05T10:23:08.084Z,16.73
2023-04-05T10:25:52.900Z,16.06
2023-04-05T10:28:32.114Z,16.12
2023-04-05T10:31:11.343Z,16.72
2023-04-05T10:33:47.839Z,16.57
2023-04-05T10:36:24.924Z,16.57
2023-04-05T10:39:04.592Z,16.59
2023-04-05T10:41:38.279Z,17.39
2023-04-05T10:44:22.470Z,17.03
2023-04-05T10:46:56.866Z,17.56
2023-04-05T10:49:35.727Z,16.96
2023-04-05T10:52:07.221Z,17.27
2023-04-05T10:54:38.623Z,17.44
2023-04-05T10:57:10.822Z,18.28
2023-04-05T10:59:45.151Z,19.59
2023-04-05T11:02:17.175Z,18.45
2023-04-05T11:04:47.985Z,17.63
2023-04-05T11:07:18.802Z,16.91
2023-04-05T11:09:57.124Z,17.35
2023-04-05T11:12:59.756Z,16.56
2023-04-05T11:15:33.213Z,17.04
2023-04-05T11:18:08.435Z,17.19
2023-04-05T11:20:55.972Z,16.85
2023-04-05T11:23:26.480Z,16.88
2023-04-05T11:25:57.826Z,16.00
2023-04-05T11:28:32.215Z,16.24
2023-04-05T11:31:16.007Z,16.69
2023-04-05T11:34:10.327Z,16.66
2023-04-05T11:36:46.017Z,16.04
2023-04-05T11:39:28.904Z,16.36
2023-04-05T11:42:04.138Z,15.96
2023-04-05T11:44:43.294Z,15.72
2023-04-05T11:47:13.064Z,16.16
2023-04-05T11:49:43.302Z,16.50
2023-04-05T11:52:16.117Z,15.51
2023-04-05T11:54:49.339Z,16.00
2023-04-05T11:57:22.503Z,16.57
2023-04-05T11:59:53.350Z,16.71
2023-04-05T12:02:23.332Z,15.71
2023-04-05T12:04:57.471Z,15.72
2023-04-05T12:07:32.706Z,16.61
2023-04-05T12:10:08.657Z,16.56
2023-04-05T12:12:38.944Z,16.57
2023-04-05T12:15:11.125Z,17.00
2023-04-05T12:17:45.787Z,16.66
2023-04-05T12:20:17.745Z,16.74
2023-04-05T12:22:50.491Z,16.71
2023-04-05T12:25:21.272Z,16.49
2023-04-05T12:27:50.836Z,18.61
2023-04-05T12:30:22.601Z,17.76
2023-04-05T12:32:54.191Z,17.14
2023-04-05T12:35:31.987Z,16.09
2023-04-05T12:38:03.268Z,16.68
2023-04-05T12:40:34.082Z,16.73
2023-04-05T12:43:05.171Z,16.95
2023-04-05T12:45:41.929Z,16.16
2023-04-05T12:48:14.246Z,16.41
2023-04-05T12:50:48.536Z,15.84
2023-04-05T12:53:21.427Z,16.61
2023-04-05T12:55:52.755Z,16.25
2023-04-05T12:58:23.699Z,16.38
2023-04-05T13:00:53.392Z,16.79
2023-04-05T13:03:23.905Z,16.80
2023-04-05T13:05:54.142Z,16.57
2023-04-05T13:08:26.983Z,16.53
2023-04-05T13:10:58.021Z,16.49
2023-04-05T13:13:27.623Z,16.05
2023-04-05T13:15:57.562Z,15.10
2023-04-05T13:18:27.013Z,15.04
2023-04-05T13:20:56.657Z,15.41
2023-04-05T13:23:27.306Z,14.79
2023-04-05T13:25:57.018Z,14.88
2023-04-05T13:28:27.695Z,15.45
2023-04-05T13:30:57.691Z,15.40
2023-04-05T13:33:27.123Z,15.37
2023-04-05T13:35:56.859Z,14.97
2023-04-05T13:38:27.619Z,13.91
2023-04-05T13:40:57.261Z,14.59
2023-04-05T13:43:28.122Z,13.84
2023-04-05T13:45:57.744Z,15.15
2023-04-05T13:48:27.082Z,15.15
2023-04-05T13:50:56.782Z,15.34
2023-04-05T13:53:28.678Z,16.30
2023-04-05T13:55:58.470Z,15.87
2023-04-05T13:58:27.830Z,15.45
2023-04-05T14:00:57.432Z,15.79
2023-04-05T14:03:27.058Z,15.98
2023-04-05T14:05:56.931Z,15.92
2023-04-05T14:08:27.568Z,14.99
2023-04-05T14:10:57.350Z,15.91
2023-04-05T14:13:26.876Z,16.15
2023-04-05T14:15:56.675Z,15.85
2023-04-05T14:18:26.306Z,15.50
2023-04-05T14:20:56.652Z,15.85
2023-04-05T14:23:27.648Z,15.11
2023-04-05T14:25:57.390Z,15.40
2023-04-05T14:28:27.062Z,14.48
2023-04-05T14:30:58.536Z,15.10
2023-04-05T14:33:28.277Z,15.32
2023-04-05T14:35:58.020Z,16.38
2023-04-05T14:38:29.075Z,16.40
2023-04-05T14:40:58.724Z,15.97
2023-04-05T14:43:28.203Z,15.92
2023-04-05T14:45:57.972Z,16.55
2023-04-05T14:48:28.131Z,16.60
2023-04-05T14:50:58.035Z,15.14
2023-04-05T14:53:28.895Z,15.54
2023-04-05T14:55:58.716Z,16.45
2023-04-05T14:58:29.329Z,16.42
2023-04-05T15:00:59.284Z,17.03
2023-04-05T15:03:30.142Z,16.52
2023-04-05T15:06:00.633Z,16.72
2023-04-05T15:08:32.347Z,16.25
2023-04-05T15:11:02.064Z,15.90
2023-04-05T15:13:31.657Z,15.56
2023-04-05T15:16:01.330Z,15.94
2023-04-05T15:18:30.796Z,15.27
2023-04-05T15:21:01.141Z,14.99
2023-04-05T15:23:33.193Z,14.69
2023-04-05T15:26:02.811Z,15.49
2023-04-05T15:28:32.278Z,15.74
2023-04-05T15:31:01.927Z,14.63
2023-04-05T15:33:31.833Z,15.36
2023-04-05T15:36:01.559Z,15.52
2023-04-05T15:38:32.404Z,15.37
2023-04-05T15:41:02.183Z,15.20
2023-04-05T15:43:34.175Z,15.48
2023-04-05T15:46:05.143Z,15.66
2023-04-05T15:48:34.579Z,15.56
2023-04-05T15:51:04.496Z,15.43
2023-04-05T15:53:35.527Z,15.86
2023-04-05T15:56:05.445Z,15.52
2023-04-05T15:58:36.795Z,15.92
2023-04-05T16:01:06.982Z,16.64
2023-04-05T16:03:36.513Z,15.78
2023-04-05T16:06:06.521Z,15.75
2023-04-05T16:08:37.700Z,15.82
2023-04-05T16:11:08.717Z,15.69
2023-04-05T16:13:38.174Z,16.15
2023-04-05T16:16:08.506Z,16.26
2023-04-05T16:18:38.396Z,15.80
2023-04-05T16:21:08.740Z,15.73
2023-04-05T16:23:39.970Z,15.87
2023-04-05T16:26:09.701Z,14.90
2023-04-05T16:28:39.481Z,14.63
2023-04-05T16:31:09.222Z,15.01
2023-04-05T16:33:38.698Z,14.91
2023-04-05T16:36:08.816Z,14.61
2023-04-05T16:38:41.735Z,14.90
2023-04-05T16:41:11.589Z,15.38
2023-04-05T16:43:41.322Z,15.08
2023-04-05T16:46:11.070Z,14.50
2023-04-05T16:48:40.522Z,15.35
2023-04-05T16:51:10.763Z,15.25
2023-04-05T16:53:42.278Z,14.66
2023-04-05T16:56:12.358Z,14.68
2023-04-05T16:58:42.152Z,14.79
2023-04-05T17:01:11.958Z,14.39
2023-04-05T17:03:42.282Z,14.19
2023-04-05T17:06:13.525Z,13.47
2023-04-05T17:08:44.613Z,13.90
2023-04-05T17:11:14.393Z,13.87
2023-04-05T17:13:45.096Z,14.51
2023-04-05T17:16:15.133Z,14.53
2023-04-05T17:18:45.199Z,13.47
2023-04-05T17:21:15.252Z,13.92
2023-04-05T17:23:46.100Z,14.01
2023-04-05T17:26:16.376Z,13.84
2023-04-05T17:28:46.031Z,13.84
2023-04-05T17:31:15.965Z,13.94
2023-04-05T17:33:48.237Z,14.26
2023-04-05T17:36:18.595Z,14.20
2023-04-05T17:38:49.477Z,13.44
2023-04-05T17:41:19.095Z,13.11
2023-04-05T17:43:48.653Z,13.48
2023-04-05T17:46:27.363Z,13.12
2023-04-05T17:49:04.241Z,13.55
2023-04-05T17:51:34.270Z,13.18
2023-04-05T17:54:05.294Z,13.43
2023-04-05T17:56:35.045Z,13.88
2023-04-05T17:59:06.276Z,13.98
2023-04-05T18:01:37.530Z,13.60
2023-04-05T18:04:09.353Z,13.59
2023-04-05T18:06:40.925Z,13.54
2023-04-05T18:09:12.154Z,13.56
2023-04-05T18:11:42.425Z,13.75
2023-04-05T18:14:11.998Z,13.71
2023-04-05T18:16:42.092Z,13.39
2023-04-05T18:19:11.781Z,13.68
2023-04-05T18:21:41.542Z,13.75
2023-04-05T18:24:13.197Z,13.78
2023-04-05T18:26:42.841Z,13.34
2023-04-05T18:29:12.848Z,13.89
2023-04-05T18:31:42.881Z,14.01
2023-04-05T18:34:12.736Z,14.17
2023-04-05T18:36:44.003Z,13.61
2023-04-05T18:39:14.752Z,13.63
2023-04-05T18:41:44.701Z,13.94
2023-04-05T18:44:14.253Z,13.29
2023-04-05T18:46:45.121Z,13.63
2023-04-05T18:49:15.919Z,13.65
2023-04-05T18:51:46.048Z,13.63
2023-04-05T18:54:18.578Z,13.46
2023-04-05T18:56:48.428Z,13.33
2023-04-05T18:59:18.485Z,13.49
2023-04-05T19:01:49.198Z,13.46
2023-04-05T19:04:18.926Z,13.53
2023-04-05T19:06:48.801Z,13.47
2023-04-05T19:09:20.348Z,13.95
2023-04-05T19:11:50.188Z,13.02
2023-04-05T19:14:20.116Z,12.74
2023-04-05T19:16:49.890Z,12.74
2023-04-05T19:19:19.349Z,12.67
2023-04-05T19:21:50.384Z,12.97
2023-04-05T19:24:22.028Z,13.01
2023-04-05T19:26:52.104Z,12.87
2023-04-05T19:29:22.321Z,12.88
2023-04-05T19:31:52.309Z,12.96
2023-04-05T19:34:21.851Z,12.71
2023-04-05T19:36:51.669Z,12.62
2023-04-05T19:39:25.519Z,12.55
2023-04-05T19:41:56.102Z,12.55
2023-04-05T19:44:45.623Z,12.96
2023-04-05T19:47:16.032Z,13.06
2023-04-05T19:49:45.623Z,13.35
2023-04-05T19:52:36.650Z,13.43
2023-04-05T19:55:25.890Z,12.49
2023-04-05T19:57:56.265Z,12.76
2023-04-05T20:00:35.905Z,12.46
2023-04-05T20:03:24.952Z,12.74
2023-04-05T20:06:17.125Z,12.88
2023-04-05T20:08:48.190Z,12.66
2023-04-05T20:11:22.174Z,12.41
2023-04-05T20:13:55.246Z,12.51
2023-04-05T20:16:27.602Z,12.66
2023-04-05T20:19:00.813Z,12.33
2023-04-05T20:21:31.012Z,12.53
2023-04-05T20:24:01.456Z,12.47
2023-04-05T20:26:33.727Z,12.22
2023-04-05T20:29:05.186Z,12.33
2023-04-05T20:31:39.083Z,12.45
2023-04-05T20:34:12.345Z,12.11
2023-04-05T20:36:49.348Z,11.71
2023-04-05T20:39:19.281Z,12.13
2023-04-05T20:41:50.199Z,12.64
2023-04-05T20:44:20.078Z,12.52
2023-04-05T20:46:51.858Z,12.19
2023-04-05T20:49:22.553Z,11.54
2023-04-05T20:51:54.932Z,11.99
2023-04-05T20:54:24.955Z,11.62
2023-04-05T20:56:55.827Z,11.51
2023-04-05T20:59:26.428Z,11.49
2023-04-05T21:01:56.042Z,11.37
2023-04-05T21:04:29.341Z,11.74
2023-04-05T21:06:59.436Z,11.47
2023-04-05T21:09:29.049Z,11.49
2023-04-05T21:12:00.145Z,11.81
2023-04-05T21:14:29.804Z,11.21
2023-04-05T21:16:59.300Z,11.50
2023-04-05T21:19:29.000Z,11.54
2023-04-05T21:21:58.455Z,11.74
2023-04-05T21:24:28.143Z,11.13
2023-04-05T21:26:58.846Z,11.19
2023-04-05T21:29:28.589Z,11.45
2023-04-05T21:31:58.003Z,11.72
2023-04-05T21:34:27.592Z,10.87
2023-04-05T21:36:57.010Z,11.34
2023-04-05T21:39:26.728Z,11.68
2023-04-05T21:41:56.431Z,11.43
2023-04-05T21:44:27.725Z,11.25
2023-04-05T21:46:57.614Z,11.07
2023-04-05T21:49:27.339Z,11.07
2023-04-05T21:51:56.802Z,11.38
2023-04-05T21:54:26.464Z,10.84
2023-04-05T21:56:56.552Z,11.13
2023-04-05T21:59:27.753Z,11.04
2023-04-05T22:01:57.500Z,11.28
2023-04-05T22:04:29.145Z,11.61
2023-04-05T22:06:58.552Z,11.46
2023-04-05T22:09:29.214Z,11.13
2023-04-05T22:11:59.080Z,11.04
2023-04-05T22:14:30.863Z,10.99
2023-04-05T22:17:00.293Z,11.37
2023-04-05T22:19:30.155Z,11.47
2023-04-05T22:21:59.696Z,11.36
2023-04-05T22:24:29.510Z,10.97
2023-04-05T22:26:58.897Z,11.52
2023-04-05T22:29:30.102Z,12.14
2023-04-05T22:31:59.669Z,11.58
2023-04-05T22:34:29.453Z,11.39
2023-04-05T22:36:58.951Z,11.51
2023-04-05T22:39:28.867Z,11.47
2023-04-05T22:41:58.424Z,11.89
2023-04-05T22:44:29.594Z,11.57
2023-04-05T22:46:58.980Z,11.70
2023-04-05T22:49:28.752Z,11.54
2023-04-05T22:51:58.089Z,11.64
2023-04-05T22:54:27.818Z,11.71
2023-04-05T22:56:57.146Z,11.44
2023-04-05T22:59:28.304Z,11.43
2023-04-05T23:01:58.186Z,11.78
2023-04-05T23:04:27.865Z,10.99
2023-04-05T23:06:57.721Z,11.68
2023-04-05T23:09:27.476Z,11.46
2023-04-05T23:11:57.058Z,11.70
2023-04-05T23:14:27.253Z,11.77
2023-04-05T23:16:58.193Z,11.66
2023-04-05T23:19:27.908Z,12.02
2023-04-05T23:21:57.390Z,12.03
2023-04-05T23:24:27.249Z,11.63
2023-04-05T23:26:56.729Z,12.20
2023-04-05T23:29:26.568Z,11.76
2023-04-05T23:31:57.460Z,12.05
2023-04-05T23:34:28.261Z,11.95
2023-04-05T23:36:57.752Z,12.09
2023-04-05T23:39:27.521Z,12.05
2023-04-05T23:41:57.863Z,12.62
2023-04-05T23:44:27.634Z,12.32
2023-04-05T23:46:58.974Z,12.33
2023-04-05T23:49:28.726Z,12.51
2023-04-05T23:51:58.204Z,12.25
2023-04-05T23:54:28.014Z,12.24
2023-04-05T23:56:57.662Z,12.64
2023-04-05T23:59:27.472Z,12.50
